createdAt,value
2019-05-28T00:00:24.567Z,18.70
2019-05-28T00:02:58.851Z,18.70
2019-05-28T00:05:33.469Z,18.70
2019-05-28T00:08:08.885Z,18.70
2019-05-28T00:10:43.158Z,18.70
2019-05-28T00:13:15.565Z,18.70
2019-05-28T00:15:50.497Z,18.60
2019-05-28T00:18:27.909Z,18.60
2019-05-28T00:21:01.648Z,18.60
2019-05-28T00:23:36.831Z,18.60
2019-05-28T00:26:12.813Z,18.60
2019-05-28T00:28:48.431Z,18.60
2019-05-28T00:31:22.902Z,18.60
2019-05-28T00:33:57.206Z,18.60
2019-05-28T00:36:31.249Z,18.60
2019-05-28T00:39:06.945Z,18.60
2019-05-28T00:41:41.377Z,18.50
2019-05-28T00:44:16.341Z,18.50
2019-05-28T00:46:49.666Z,18.60
2019-05-28T00:49:23.021Z,18.60
2019-05-28T00:51:56.482Z,18.60
2019-05-28T00:54:30.829Z,18.50
2019-05-28T00:57:07.141Z,18.50
2019-05-28T00:59:41.707Z,18.60
2019-05-28T01:02:15.575Z,18.60
2019-05-28T01:04:49.256Z,18.60
2019-05-28T01:07:23.171Z,18.60
2019-05-28T01:09:57.116Z,18.60
2019-05-28T01:12:35.734Z,18.50
2019-05-28T01:15:10.168Z,18.60
2019-05-28T01:17:44.573Z,18.50
2019-05-28T01:20:19.302Z,18.60
2019-05-28T01:22:52.868Z,18.50
2019-05-28T01:25:26.129Z,18.50
2019-05-28T01:28:01.025Z,18.50
2019-05-28T01:30:53.968Z,18.50
2019-05-28T01:33:16.050Z,18.50
2019-05-28T01:35:50.001Z,18.40
2019-05-28T01:38:23.049Z,18.40
2019-05-28T01:40:55.819Z,18.40
2019-05-28T01:43:29.507Z,18.40
2019-05-28T01:46:03.469Z,18.40
2019-05-28T01:48:36.737Z,18.40
2019-05-28T01:51:10.493Z,18.30
2019-05-28T01:53:43.671Z,18.30
2019-05-28T01:56:21.100Z,18.30
2019-05-28T01:58:54.780Z,18.30
2019-05-28T02:01:29.618Z,18.30
2019-05-28T02:04:04.300Z,18.30
2019-05-28T02:06:38.632Z,18.30
2019-05-28T02:09:14.681Z,18.40
2019-05-28T02:11:49.487Z,18.40
2019-05-28T02:14:23.150Z,18.50
2019-05-28T02:16:56.840Z,18.50
2019-05-28T02:19:30.858Z,18.50
2019-05-28T02:22:05.026Z,18.40
2019-05-28T02:24:41.334Z,18.40
2019-05-28T02:27:15.926Z,18.40
2019-05-28T02:29:49.801Z,18.50
2019-05-28T02:32:25.052Z,18.40
2019-05-28T02:34:58.925Z,18.40
2019-05-28T02:37:33.699Z,18.40
2019-05-28T02:40:07.241Z,18.40
2019-05-28T02:42:46.077Z,18.30
2019-05-28T02:45:22.278Z,18.30
2019-05-28T02:47:56.567Z,18.20
2019-05-28T02:50:59.150Z,18.10
2019-05-28T02:53:34.558Z,18.10
2019-05-28T02:56:08.361Z,18.10
2019-05-28T02:58:43.195Z,18.10
2019-05-28T03:01:16.294Z,18.00
2019-05-28T03:03:51.729Z,18.00
2019-05-28T03:06:27.117Z,18.00
2019-05-28T03:09:04.767Z,17.90
2019-05-28T03:11:39.324Z,17.90
2019-05-28T03:14:14.149Z,17.90
2019-05-28T03:16:50.637Z,17.90
2019-05-28T03:19:28.113Z,17.90
2019-05-28T03:22:03.400Z,17.90
2019-05-28T03:24:39.273Z,17.90
2019-05-28T03:27:13.202Z,17.90
2019-05-28T03:29:47.641Z,17.90
2019-05-28T03:32:22.961Z,17.90
2019-05-28T03:34:56.338Z,17.90
2019-05-28T03:37:31.674Z,17.90
2019-05-28T03:40:07.714Z,17.90
2019-05-28T03:42:42.422Z,17.90
2019-05-28T03:45:19.011Z,17.90
2019-05-28T03:47:53.465Z,18.00
2019-05-28T03:50:27.987Z,18.00
2019-05-28T03:53:02.031Z,17.90
2019-05-28T03:55:35.856Z,18.00
2019-05-28T03:58:10.204Z,18.10
2019-05-28T04:00:44.558Z,18.00
2019-05-28T04:03:19.811Z,18.00
2019-05-28T04:05:53.569Z,18.10
2019-05-28T04:08:27.080Z,18.20
2019-05-28T04:11:00.957Z,18.10
2019-05-28T04:13:34.920Z,18.00
2019-05-28T04:16:08.836Z,17.90
2019-05-28T04:18:42.735Z,18.10
2019-05-28T04:21:16.618Z,18.30
2019-05-28T04:23:50.012Z,18.20
2019-05-28T04:26:24.381Z,18.10
2019-05-28T04:28:58.375Z,18.10
2019-05-28T04:31:32.620Z,18.10
2019-05-28T04:34:07.291Z,18.10
2019-05-28T04:36:41.174Z,18.10
2019-05-28T04:39:15.270Z,18.10
2019-05-28T04:41:47.939Z,18.20
2019-05-28T04:44:22.101Z,18.30
2019-05-28T04:46:55.828Z,18.30
2019-05-28T04:49:29.580Z,18.30
2019-05-28T04:52:04.387Z,18.30
2019-05-28T04:54:38.266Z,18.40
2019-05-28T04:57:14.260Z,18.40
2019-05-28T04:59:48.881Z,18.50
2019-05-28T05:02:23.391Z,18.60
2019-05-28T05:04:57.703Z,18.60
2019-05-28T05:07:31.968Z,18.60
2019-05-28T05:10:07.788Z,18.60
2019-05-28T05:12:43.372Z,18.70
2019-05-28T05:15:18.205Z,18.70
2019-05-28T05:17:53.320Z,18.70
2019-05-28T05:20:27.084Z,18.70
2019-05-28T05:23:02.051Z,18.80
2019-05-28T05:25:38.069Z,18.80
2019-05-28T05:28:17.417Z,18.80
2019-05-28T05:30:51.748Z,18.90
2019-05-28T05:33:27.944Z,19.00
2019-05-28T05:36:03.772Z,19.00
2019-05-28T05:38:37.900Z,19.10
2019-05-28T05:41:15.470Z,19.10
2019-05-28T05:43:51.376Z,19.10
2019-05-28T05:46:29.430Z,19.20
2019-05-28T05:49:06.814Z,19.30
2019-05-28T05:51:45.431Z,19.30
2019-05-28T05:54:20.259Z,19.30
2019-05-28T05:56:56.477Z,19.40
2019-05-28T05:59:33.547Z,19.40
2019-05-28T06:02:17.286Z,19.50
2019-05-28T06:04:53.472Z,19.60
2019-05-28T06:07:29.314Z,19.60
2019-05-28T06:10:06.786Z,19.70
2019-05-28T06:12:42.034Z,19.80
2019-05-28T06:15:20.476Z,19.80
2019-05-28T06:17:58.229Z,19.90
2019-05-28T06:20:33.042Z,20.00
2019-05-28T06:23:19.807Z,20.10
2019-05-28T06:25:55.084Z,20.20
2019-05-28T06:28:34.483Z,20.10
2019-05-28T06:31:12.918Z,20.20
2019-05-28T06:33:56.767Z,20.30
2019-05-28T06:36:32.764Z,20.40
2019-05-28T06:39:19.564Z,20.50
2019-05-28T06:42:03.534Z,20.60
2019-05-28T06:44:48.568Z,20.60
2019-05-28T06:47:30.123Z,20.70
2019-05-28T06:50:14.486Z,20.70
2019-05-28T06:52:56.152Z,20.80
2019-05-28T06:55:32.757Z,20.90
2019-05-28T06:58:14.437Z,20.90
2019-05-28T07:01:03.353Z,21.00
2019-05-28T07:03:38.156Z,21.10
2019-05-28T07:06:22.274Z,21.30
2019-05-28T07:09:05.928Z,21.40
2019-05-28T07:11:42.907Z,21.40
2019-05-28T07:14:21.440Z,21.50
2019-05-28T07:16:54.374Z,21.50
2019-05-28T07:19:43.741Z,21.60
2019-05-28T07:22:17.549Z,21.70
2019-05-28T07:25:19.766Z,21.80
2019-05-28T07:28:11.070Z,21.80
2019-05-28T07:31:06.768Z,21.90
2019-05-28T07:33:41.652Z,22.00
2019-05-28T07:36:16.866Z,22.10
2019-05-28T07:38:50.727Z,22.30
2019-05-28T07:41:24.786Z,22.40
2019-05-28T07:44:10.024Z,22.50
2019-05-28T07:46:53.900Z,22.60
2019-05-28T07:49:28.420Z,22.70
2019-05-28T07:52:04.912Z,22.80
2019-05-28T07:54:39.718Z,22.70
2019-05-28T07:57:14.038Z,22.80
2019-05-28T07:59:48.007Z,22.70
2019-05-28T08:02:21.051Z,22.80
2019-05-28T08:04:54.398Z,22.70
2019-05-28T08:07:27.999Z,22.60
2019-05-28T08:10:09.956Z,22.60
2019-05-28T08:12:46.036Z,22.70
2019-05-28T08:15:19.648Z,22.80
2019-05-28T08:17:53.023Z,22.90
2019-05-28T08:20:27.124Z,23.10
2019-05-28T08:23:00.356Z,23.20
2019-05-28T08:25:47.027Z,23.20
2019-05-28T08:28:20.213Z,23.20
2019-05-28T08:31:14.190Z,23.20
2019-05-28T08:33:41.830Z,23.40
2019-05-28T08:36:18.525Z,23.60
2019-05-28T08:38:57.570Z,23.80
2019-05-28T08:41:31.707Z,23.80
2019-05-28T08:44:08.048Z,23.90
2019-05-28T08:46:42.279Z,24.00
2019-05-28T08:49:16.519Z,24.00
2019-05-28T08:51:49.906Z,24.00
2019-05-28T08:54:24.724Z,24.00
2019-05-28T08:56:58.846Z,24.00
2019-05-28T08:59:32.661Z,24.10
2019-05-28T09:02:06.716Z,24.30
2019-05-28T09:04:41.683Z,24.30
2019-05-28T09:07:14.915Z,24.40
2019-05-28T09:10:05.556Z,24.30
2019-05-28T09:12:42.402Z,24.30
2019-05-28T09:15:16.598Z,24.30
2019-05-28T09:17:51.827Z,24.40
2019-05-28T09:20:25.081Z,24.60
2019-05-28T09:22:58.895Z,24.70
2019-05-28T09:25:32.015Z,24.90
2019-05-28T09:28:05.252Z,25.10
2019-05-28T09:30:38.737Z,25.20
2019-05-28T09:33:12.228Z,25.00
2019-05-28T09:36:06.311Z,24.90
2019-05-28T09:38:22.969Z,25.00
2019-05-28T09:41:05.877Z,25.00
2019-05-28T09:43:40.440Z,25.00
2019-05-28T09:46:21.464Z,24.90
2019-05-28T09:48:54.586Z,24.90
2019-05-28T09:51:37.049Z,24.80
2019-05-28T09:54:42.064Z,24.80
2019-05-28T09:57:14.661Z,24.70
2019-05-28T09:59:49.361Z,24.90
2019-05-28T10:02:22.673Z,24.90
2019-05-28T10:05:04.708Z,25.00
2019-05-28T10:07:40.279Z,25.00
2019-05-28T10:10:28.667Z,25.10
2019-05-28T10:13:02.345Z,25.00
2019-05-28T10:15:54.612Z,25.00
2019-05-28T10:18:29.363Z,25.00
2019-05-28T10:21:16.871Z,24.80
2019-05-28T10:23:40.617Z,24.80
2019-05-28T10:26:17.981Z,24.70
2019-05-28T10:28:56.516Z,24.70
2019-05-28T10:31:31.451Z,24.70
2019-05-28T10:34:05.539Z,24.70
2019-05-28T10:36:47.950Z,24.70
2019-05-28T10:39:22.356Z,24.60
2019-05-28T10:41:59.364Z,24.50
2019-05-28T10:44:34.925Z,24.40
2019-05-28T10:47:15.013Z,24.40
2019-05-28T10:49:50.835Z,24.50
2019-05-28T10:52:25.811Z,24.70
2019-05-28T10:55:02.557Z,24.90
2019-05-28T10:57:35.635Z,25.00
2019-05-28T11:00:09.720Z,25.10
2019-05-28T11:02:44.711Z,25.20
2019-05-28T11:05:26.102Z,25.10
2019-05-28T11:08:02.643Z,25.10
2019-05-28T11:10:37.745Z,25.00
2019-05-28T11:13:28.698Z,24.90
2019-05-28T11:16:23.493Z,24.80
2019-05-28T11:18:57.351Z,24.60
2019-05-28T11:21:44.524Z,24.20
2019-05-28T11:24:32.606Z,24.20
2019-05-28T11:27:18.780Z,24.20
2019-05-28T11:29:52.917Z,23.90
2019-05-28T11:32:38.494Z,23.80
2019-05-28T11:35:11.983Z,23.70
2019-05-28T11:37:45.906Z,23.80
2019-05-28T11:40:23.960Z,23.70
2019-05-28T11:43:06.768Z,23.80
2019-05-28T11:45:44.178Z,24.00
2019-05-28T11:48:20.067Z,24.40
2019-05-28T11:51:03.699Z,24.30
2019-05-28T11:53:40.442Z,24.20
2019-05-28T11:56:16.123Z,24.20
2019-05-28T11:58:50.962Z,24.30
2019-05-28T12:01:34.391Z,24.40
2019-05-28T12:03:58.936Z,24.60
2019-05-28T12:06:43.187Z,24.60
2019-05-28T12:09:19.990Z,24.50
2019-05-28T12:12:06.125Z,24.20
2019-05-28T12:15:10.102Z,24.10
2019-05-28T12:17:42.744Z,24.00
2019-05-28T12:20:45.850Z,24.00
2019-05-28T12:23:38.660Z,24.00
2019-05-28T12:26:16.578Z,23.90
2019-05-28T12:28:49.581Z,24.00
2019-05-28T12:31:23.838Z,23.80
2019-05-28T12:33:57.238Z,23.80
2019-05-28T12:36:41.249Z,23.80
2019-05-28T12:39:24.463Z,23.90
2019-05-28T12:42:07.685Z,23.80
2019-05-28T12:45:08.218Z,23.70
2019-05-28T12:47:26.515Z,23.70
2019-05-28T12:50:18.875Z,23.80
2019-05-28T12:52:58.059Z,23.70
2019-05-28T12:55:33.992Z,23.70
2019-05-28T12:58:18.584Z,24.00
2019-05-28T13:00:53.253Z,24.10
2019-05-28T13:03:26.820Z,24.20
2019-05-28T13:06:05.294Z,24.30
2019-05-28T13:08:37.805Z,24.30
2019-05-28T13:11:12.292Z,24.30
2019-05-28T13:13:46.363Z,24.40
2019-05-28T13:16:39.112Z,24.50
2019-05-28T13:19:23.768Z,24.60
2019-05-28T13:21:58.331Z,24.70
2019-05-28T13:24:32.000Z,25.00
2019-05-28T13:27:17.542Z,25.20
2019-05-28T13:29:42.552Z,25.50
2019-05-28T13:32:16.262Z,25.70
2019-05-28T13:34:50.899Z,25.70
2019-05-28T13:37:25.807Z,25.80
2019-05-28T13:40:00.820Z,25.90
2019-05-28T13:42:38.518Z,25.90
2019-05-28T13:45:12.290Z,26.20
2019-05-28T13:47:50.104Z,26.20
2019-05-28T13:50:24.021Z,26.40
2019-05-28T13:52:59.131Z,26.50
2019-05-28T13:55:31.831Z,26.60
2019-05-28T13:58:04.590Z,26.50
2019-05-28T14:00:45.514Z,26.30
2019-05-28T14:03:19.931Z,26.20
2019-05-28T14:05:54.082Z,26.00
2019-05-28T14:08:46.567Z,25.40
2019-05-28T14:11:11.288Z,25.20
2019-05-28T14:13:46.614Z,25.20
2019-05-28T14:16:26.354Z,25.00
2019-05-28T14:18:59.901Z,25.00
2019-05-28T14:21:33.998Z,25.00
2019-05-28T14:24:08.321Z,24.80
2019-05-28T14:26:42.633Z,24.80
2019-05-28T14:29:16.204Z,24.50
2019-05-28T14:31:51.459Z,24.50
2019-05-28T14:34:27.213Z,24.50
2019-05-28T14:37:00.798Z,24.40
2019-05-28T14:39:41.104Z,24.30
2019-05-28T14:42:26.040Z,24.30
2019-05-28T14:45:08.076Z,24.30
2019-05-28T14:47:45.456Z,24.10
2019-05-28T14:50:18.229Z,24.20
2019-05-28T14:53:10.649Z,24.40
2019-05-28T14:55:45.425Z,24.30
2019-05-28T14:58:41.762Z,24.20
2019-05-28T15:01:41.993Z,24.20
2019-05-28T15:04:23.202Z,24.10
2019-05-28T15:07:13.721Z,24.00
2019-05-28T15:10:01.805Z,24.00
2019-05-28T15:12:35.759Z,24.00
2019-05-28T15:15:11.672Z,24.10
2019-05-28T15:17:46.411Z,24.10
2019-05-28T15:20:19.495Z,23.90
2019-05-28T15:22:53.267Z,23.80
2019-05-28T15:25:28.018Z,23.90
2019-05-28T15:28:02.012Z,23.80
2019-05-28T15:30:37.751Z,23.70
2019-05-28T15:33:18.029Z,23.50
2019-05-28T15:35:55.895Z,23.30
2019-05-28T15:38:27.311Z,23.40
2019-05-28T15:41:01.782Z,23.30
2019-05-28T15:44:07.672Z,23.40
2019-05-28T15:46:41.053Z,23.50
2019-05-28T15:49:15.683Z,23.40
2019-05-28T15:52:07.230Z,23.30
2019-05-28T15:54:34.498Z,23.30
2019-05-28T15:57:08.129Z,23.40
2019-05-28T15:59:44.622Z,23.30
2019-05-28T16:02:18.892Z,23.30
2019-05-28T16:04:53.721Z,23.30
2019-05-28T16:07:28.932Z,23.40
2019-05-28T16:10:07.966Z,23.40
2019-05-28T16:12:42.877Z,23.30
2019-05-28T16:15:19.673Z,23.40
2019-05-28T16:17:54.407Z,23.40
2019-05-28T16:20:29.677Z,23.50
2019-05-28T16:23:12.132Z,23.40
2019-05-28T16:25:46.384Z,23.20
2019-05-28T16:28:18.713Z,23.10
2019-05-28T16:31:11.142Z,23.10
2019-05-28T16:33:28.588Z,23.00
2019-05-28T16:36:01.150Z,23.10
2019-05-28T16:38:34.607Z,23.10
2019-05-28T16:41:07.279Z,23.20
2019-05-28T16:43:42.217Z,22.90
2019-05-28T16:46:18.172Z,23.00
2019-05-28T16:48:52.732Z,22.90
2019-05-28T16:51:26.980Z,23.00
2019-05-28T16:54:18.711Z,22.90
2019-05-28T16:56:41.502Z,22.80
2019-05-28T16:59:14.670Z,22.70
2019-05-28T17:01:48.408Z,22.70
2019-05-28T17:04:23.196Z,22.70
2019-05-28T17:07:07.630Z,22.50
2019-05-28T17:09:42.726Z,22.50
2019-05-28T17:12:20.873Z,22.60
2019-05-28T17:14:54.292Z,22.40
2019-05-28T17:17:39.444Z,22.40
2019-05-28T17:20:23.047Z,22.40
2019-05-28T17:22:57.010Z,22.40
2019-05-28T17:25:38.987Z,22.30
2019-05-28T17:28:25.576Z,22.30
2019-05-28T17:30:59.320Z,22.20
2019-05-28T17:33:33.253Z,22.30
2019-05-28T17:36:07.195Z,22.30
2019-05-28T17:38:40.783Z,22.40
2019-05-28T17:41:15.525Z,22.40
2019-05-28T17:43:50.099Z,22.40
2019-05-28T17:46:24.140Z,22.40
2019-05-28T17:49:06.329Z,22.30
2019-05-28T17:51:42.235Z,22.30
2019-05-28T17:54:17.609Z,22.30
2019-05-28T17:56:51.604Z,22.30
2019-05-28T17:59:24.797Z,22.30
2019-05-28T18:01:59.310Z,22.20
2019-05-28T18:04:34.092Z,22.20
2019-05-28T18:07:41.940Z,22.20
2019-05-28T18:10:34.538Z,22.10
2019-05-28T18:13:08.865Z,22.10
2019-05-28T18:15:49.630Z,22.00
2019-05-28T18:18:59.731Z,22.10
2019-05-28T18:21:45.178Z,22.10
2019-05-28T18:25:06.822Z,22.00
2019-05-28T18:28:45.228Z,21.90
2019-05-28T18:31:34.576Z,21.90
2019-05-28T18:34:09.049Z,21.90
2019-05-28T18:36:42.421Z,21.80
2019-05-28T18:39:15.848Z,21.80
2019-05-28T18:41:50.331Z,21.80
2019-05-28T18:44:24.539Z,21.80
2019-05-28T18:47:14.434Z,21.80
2019-05-28T18:49:48.442Z,21.80
2019-05-28T18:52:25.427Z,21.80
2019-05-28T18:54:58.339Z,21.80
2019-05-28T18:57:32.706Z,21.70
2019-05-28T19:00:27.801Z,21.70
2019-05-28T19:03:01.805Z,21.60
2019-05-28T19:05:36.171Z,21.60
2019-05-28T19:08:10.269Z,21.60
2019-05-28T19:10:43.364Z,21.60
2019-05-28T19:13:17.295Z,21.60
2019-05-28T19:15:54.915Z,21.50
2019-05-28T19:18:28.669Z,21.60
2019-05-28T19:21:02.579Z,21.50
2019-05-28T19:23:38.413Z,21.50
2019-05-28T19:26:17.941Z,21.50
2019-05-28T19:28:50.449Z,21.60
2019-05-28T19:31:25.771Z,21.60
2019-05-28T19:34:00.120Z,21.50
2019-05-28T19:36:35.352Z,21.60
2019-05-28T19:39:09.945Z,21.50
2019-05-28T19:41:53.646Z,21.50
2019-05-28T19:44:19.771Z,21.60
2019-05-28T19:46:54.013Z,21.50
2019-05-28T19:49:27.155Z,21.50
2019-05-28T19:52:41.490Z,21.50
2019-05-28T19:55:15.397Z,21.50
2019-05-28T19:57:51.302Z,21.40
2019-05-28T20:00:33.750Z,21.50
2019-05-28T20:03:11.144Z,21.50
2019-05-28T20:05:45.731Z,21.50
2019-05-28T20:08:22.922Z,21.50
2019-05-28T20:10:57.403Z,21.40
2019-05-28T20:13:31.473Z,21.40
2019-05-28T20:16:05.678Z,21.40
2019-05-28T20:18:45.545Z,21.40
2019-05-28T20:21:40.618Z,21.40
2019-05-28T20:24:14.941Z,21.40
2019-05-28T20:26:56.017Z,21.30
2019-05-28T20:29:37.833Z,21.40
2019-05-28T20:32:11.994Z,21.40
2019-05-28T20:34:44.205Z,21.40
2019-05-28T20:37:17.456Z,21.50
2019-05-28T20:39:56.974Z,21.40
2019-05-28T20:42:48.771Z,21.40
2019-05-28T20:45:28.895Z,21.40
2019-05-28T20:48:12.693Z,21.40
2019-05-28T20:50:47.559Z,21.30
2019-05-28T20:53:35.178Z,21.30
2019-05-28T20:55:59.785Z,21.30
2019-05-28T20:58:40.099Z,21.40
2019-05-28T21:01:11.285Z,21.40
2019-05-28T21:03:51.576Z,21.30
2019-05-28T21:06:26.735Z,21.30
2019-05-28T21:09:01.518Z,21.20
2019-05-28T21:11:36.938Z,21.30
2019-05-28T21:14:28.170Z,21.20
2019-05-28T21:17:14.263Z,21.20
2019-05-28T21:19:55.322Z,21.20
2019-05-28T21:22:29.498Z,21.10
2019-05-28T21:25:01.840Z,21.20
2019-05-28T21:27:36.472Z,21.10
2019-05-28T21:30:11.468Z,21.10
2019-05-28T21:32:45.422Z,21.20
2019-05-28T21:35:20.659Z,21.10
2019-05-28T21:37:55.089Z,21.10
2019-05-28T21:40:34.867Z,21.10
2019-05-28T21:43:09.937Z,21.10
2019-05-28T21:45:45.882Z,21.10
2019-05-28T21:48:19.270Z,21.10
2019-05-28T21:50:54.526Z,21.00
2019-05-28T21:53:27.937Z,21.00
2019-05-28T21:56:03.424Z,21.00
2019-05-28T21:58:37.231Z,21.00
2019-05-28T22:01:20.608Z,20.90
2019-05-28T22:03:55.222Z,21.00
2019-05-28T22:06:29.262Z,21.10
2019-05-28T22:09:03.830Z,20.90
2019-05-28T22:11:38.964Z,20.90
2019-05-28T22:14:13.662Z,20.90
2019-05-28T22:16:47.608Z,20.90
2019-05-28T22:19:23.482Z,20.90
2019-05-28T22:21:58.335Z,20.90
2019-05-28T22:24:32.136Z,20.90
2019-05-28T22:27:05.352Z,20.90
2019-05-28T22:29:40.083Z,20.90
2019-05-28T22:32:15.484Z,20.90
2019-05-28T22:34:50.007Z,20.90
2019-05-28T22:37:23.840Z,20.90
2019-05-28T22:39:57.268Z,20.90
2019-05-28T22:42:30.842Z,20.80
2019-05-28T22:45:05.056Z,20.80
2019-05-28T22:47:38.843Z,20.80
2019-05-28T22:50:21.872Z,20.80
2019-05-28T22:52:48.088Z,20.80
2019-05-28T22:55:21.890Z,20.80
2019-05-28T22:57:55.704Z,20.80
2019-05-28T23:00:28.690Z,20.80
2019-05-28T23:03:05.034Z,20.80
2019-05-28T23:05:39.354Z,20.80
2019-05-28T23:08:13.175Z,20.80
2019-05-28T23:10:46.731Z,20.90
2019-05-28T23:13:20.659Z,20.80
2019-05-28T23:15:54.180Z,20.80
2019-05-28T23:18:27.876Z,20.80
2019-05-28T23:21:01.039Z,20.80
2019-05-28T23:23:34.184Z,20.80
2019-05-28T23:26:07.405Z,20.80
2019-05-28T23:28:41.360Z,20.80
2019-05-28T23:31:24.526Z,20.80
2019-05-28T23:34:02.628Z,20.70
2019-05-28T23:36:37.446Z,20.80
2019-05-28T23:39:11.117Z,20.70
2019-05-28T23:41:44.763Z,20.70
2019-05-28T23:44:19.638Z,20.70
2019-05-28T23:46:54.229Z,20.70
2019-05-28T23:49:27.601Z,20.70
2019-05-28T23:52:01.183Z,20.70
2019-05-28T23:54:34.063Z,20.70
2019-05-28T23:57:08.042Z,20.70
2019-05-28T23:59:43.221Z,20.70
